Time;durP1;ratioP1;P1;durP2;ratioP2;P2;SDS_P1;SDS_P2;PMS_P1;PMS_P2;Temp;Humidity;BMP_temperature;BMP_pressure;BME280_temperature;BME280_humidity;BME280_pressure;Samples;Min_cycle;Max_cycle;Signal;HPM_P1;HPM_P2
2022/08/11 00:02:28;;;;;;;5.00;3.30;;;21.90;49.30;;;;;;5076947;28;20440;-80
2022/08/11 00:04:56;;;;;;;9.80;3.90;;;21.90;49.90;;;;;;5074380;28;20463;-78
2022/08/11 00:07:25;;;;;;;5.30;3.67;;;21.90;50.50;;;;;;5073302;28;20440;-80
2022/08/11 00:09:54;;;;;;;4.70;4.30;;;21.90;51.20;;;;;;5076116;28;20882;-79
2022/08/11 00:12:21;;;;;;;4.27;3.87;;;21.80;51.80;;;;;;5080864;28;20446;-79
2022/08/11 00:14:58;;;;;;;3.90;3.50;;;21.70;52.10;;;;;;5080434;28;20455;-81
2022/08/11 00:17:31;;;;;;;4.70;4.30;;;21.60;52.40;;;;;;5073436;28;20447;-87
2022/08/11 00:20:08;;;;;;;4.53;3.50;;;21.50;52.60;;;;;;5096804;28;20460;-88
2022/08/11 00:23:04;;;;;;;4.90;4.23;;;21.60;53.00;;;;;;5097344;28;20440;-88
2022/08/11 00:25:36;;;;;;;4.97;4.47;;;21.50;53.10;;;;;;5081066;28;20474;-89
2022/08/11 00:28:03;;;;;;;5.13;4.20;;;21.50;52.90;;;;;;5088941;28;20496;-86
2022/08/11 00:30:39;;;;;;;9.23;3.70;;;21.50;52.80;;;;;;5078587;28;20444;-87
2022/08/11 00:33:07;;;;;;;4.70;4.13;;;21.50;53.60;;;;;;5076848;28;20435;-87
2022/08/11 00:35:34;;;;;;;4.83;3.47;;;21.40;53.00;;;;;;5074026;28;20480;-87
2022/08/11 00:38:06;;;;;;;4.00;3.60;;;21.40;53.10;;;;;;5072739;28;20494;-87
2022/08/11 00:40:39;;;;;;;4.23;3.83;;;21.30;53.50;;;;;;5073196;28;20448;-88
2022/08/11 00:43:25;;;;;;;3.80;3.27;;;21.20;54.00;;;;;;5070631;28;20539;-87
2022/08/11 00:46:11;;;;;;;5.60;4.03;;;21.30;54.20;;;;;;5073026;28;20432;-86
2022/08/11 00:48:52;;;;;;;5.50;4.37;;;21.20;54.10;;;;;;5077163;28;20789;-87
2022/08/11 00:51:34;;;;;;;6.00;4.30;;;21.20;54.30;;;;;;5078014;28;20944;-87
2022/08/11 00:54:27;;;;;;;4.87;4.17;;;21.20;54.10;;;;;;5094302;28;20463;-87
2022/08/11 00:57:22;;;;;;;5.57;4.27;;;21.20;54.30;;;;;;5079559;28;20793;-87
2022/08/11 01:00:13;;;;;;;7.50;4.53;;;21.10;54.40;;;;;;5073940;28;20470;-87
2022/08/11 01:03:06;;;;;;;5.10;4.20;;;21.10;54.60;;;;;;5071929;28;20974;-87
2022/08/11 01:05:58;;;;;;;7.93;5.00;;;21.00;54.70;;;;;;5074105;28;20471;-88
2022/08/11 01:08:46;;;;;;;6.97;6.23;;;21.00;54.40;;;;;;5072369;28;20824;-87
2022/08/11 01:11:56;;;;;;;9.80;6.93;;;21.00;54.50;;;;;;5072680;28;20933;-87
2022/08/11 01:14:54;;;;;;;6.43;5.83;;;21.10;54.50;;;;;;5072758;28;20487;-87
2022/08/11 01:18:03;;;;;;;9.00;5.30;;;21.00;54.40;;;;;;5075029;28;20450;-86
2022/08/11 01:21:17;;;;;;;4.93;4.43;;;21.00;54.50;;;;;;5068357;28;20438;-88
2022/08/11 01:24:19;;;;;;;4.87;3.40;;;20.90;54.30;;;;;;5073819;28;20499;-87
2022/08/11 01:27:24;;;;;;;5.53;3.70;;;20.90;54.40;;;;;;5073742;28;20443;-87
2022/08/11 01:30:17;;;;;;;4.97;3.80;;;20.90;54.60;;;;;;5070851;28;20951;-87
2022/08/11 01:33:24;;;;;;;3.60;3.30;;;20.80;54.90;;;;;;5071905;28;20432;-87
2022/08/11 01:36:22;;;;;;;6.17;4.37;;;20.70;55.20;;;;;;5073061;28;20424;-87
2022/08/11 01:39:18;;;;;;;3.83;3.53;;;20.70;55.90;;;;;;5072887;28;20487;-87
2022/08/11 01:45:32;;;;;;;3.43;3.00;;;20.60;56.30;;;;;;5010989;28;20940;-87
2022/08/11 01:48:09;;;;;;;4.17;3.77;;;20.50;56.60;;;;;;5071459;28;20436;-83
2022/08/11 01:50:57;;;;;;;5.03;3.40;;;20.40;57.10;;;;;;5084226;28;20499;-84
2022/08/11 01:53:46;;;;;;;4.03;3.60;;;20.30;57.50;;;;;;5095302;28;20436;-82
2022/08/11 01:56:41;;;;;;;5.40;4.13;;;20.20;57.00;;;;;;5092598;28;20475;-83
2022/08/11 01:59:19;;;;;;;4.23;3.83;;;20.20;57.30;;;;;;5076980;28;20549;-83
2022/08/11 02:02:03;;;;;;;4.50;4.00;;;20.30;57.40;;;;;;5081309;28;20440;-84
2022/08/11 02:04:48;;;;;;;5.27;3.43;;;20.20;57.30;;;;;;5092390;28;20485;-83
2022/08/11 02:07:29;;;;;;;4.63;3.53;;;20.20;57.40;;;;;;5087104;28;20448;-87
2022/08/11 02:13:16;;;;;;;5.30;4.50;;;20.20;58.00;;;;;;5071605;28;20435;-86
2022/08/11 02:15:49;;;;;;;4.60;3.97;;;20.10;58.10;;;;;;5070515;28;20447;-85
2022/08/11 02:23:38;;;;;;;4.43;3.93;;;20.00;58.00;;;;;;5070553;28;20446;-86
2022/08/11 02:24:01;;;;;;;4.57;3.67;;;19.90;57.80;;;;;;5043298;28;20489;-84
2022/08/11 02:26:39;;;;;;;4.63;4.23;;;19.90;57.80;;;;;;5090408;28;20505;-84
2022/08/11 02:29:17;;;;;;;4.87;4.40;;;19.80;58.10;;;;;;5093846;28;20421;-85
2022/08/11 02:34:47;;;;;;;5.83;4.80;;;19.70;58.60;;;;;;5072585;28;20458;-86
2022/08/11 02:37:24;;;;;;;5.00;4.13;;;19.60;58.50;;;;;;5073434;28;20455;-86
2022/08/11 02:40:06;;;;;;;4.60;3.93;;;19.50;58.70;;;;;;5072687;28;20471;-87
2022/08/11 02:42:41;;;;;;;5.60;4.00;;;19.50;58.80;;;;;;5075335;28;20436;-86
2022/08/11 02:45:34;;;;;;;4.70;4.30;;;19.40;58.90;;;;;;5097679;28;20455;-85
2022/08/11 02:51:10;;;;;;;5.50;4.17;;;19.50;58.90;;;;;;5043517;28;20871;-86
2022/08/11 02:53:43;;;;;;;5.87;5.27;;;19.50;58.80;;;;;;5094004;28;20440;-86
2022/08/11 02:56:23;;;;;;;6.23;3.97;;;19.50;59.00;;;;;;5093025;28;20412;-84
2022/08/11 03:02:02;;;;;;;5.03;4.50;;;19.50;59.30;;;;;;5007049;28;20438;-85
2022/08/11 03:04:37;;;;;;;5.00;4.50;;;19.40;59.60;;;;;;5002292;28;20460;-85
2022/08/11 03:07:11;;;;;;;4.70;4.30;;;19.40;59.70;;;;;;5039780;28;20439;-86
2022/08/11 03:09:50;;;;;;;4.50;4.10;;;19.40;59.70;;;;;;5080545;28;20439;-86
2022/08/11 03:18:15;;;;;;;7.07;4.33;;;19.30;60.40;;;;;;5074732;28;20943;-85
2022/08/11 03:20:46;;;;;;;5.00;3.67;;;19.20;60.80;;;;;;5073785;28;20471;-85
2022/08/11 03:23:22;;;;;;;6.13;4.20;;;19.10;61.10;;;;;;5075362;28;20440;-85
2022/08/11 03:25:56;;;;;;;5.03;4.60;;;19.10;61.50;;;;;;5076981;28;20443;-86
2022/08/11 03:28:30;;;;;;;5.03;4.33;;;19.10;61.40;;;;;;5074018;28;20439;-85
2022/08/11 03:31:10;;;;;;;6.77;4.20;;;19.10;61.80;;;;;;5073671;28;20443;-86
2022/08/11 03:36:59;;;;;;;6.20;4.63;;;19.00;61.90;;;;;;5057765;28;20543;-86
2022/08/11 03:39:37;;;;;;;5.63;4.50;;;19.00;61.90;;;;;;5072683;28;20486;-85
2022/08/11 03:42:14;;;;;;;5.77;4.33;;;19.10;62.20;;;;;;5073989;28;20470;-86
2022/08/11 03:45:12;;;;;;;5.40;4.90;;;19.10;62.00;;;;;;5073591;28;20463;-86
2022/08/11 03:48:12;;;;;;;13.87;5.00;;;19.10;62.00;;;;;;5079008;28;20561;-86
2022/08/11 03:50:57;;;;;;;5.77;5.20;;;19.00;62.10;;;;;;5082553;28;20866;-86
2022/08/11 03:53:44;;;;;;;5.60;4.83;;;18.90;62.90;;;;;;5089380;28;20450;-85
2022/08/11 03:56:48;;;;;;;5.20;4.70;;;18.90;62.90;;;;;;5090309;28;20443;-85
2022/08/11 03:59:45;;;;;;;5.40;3.83;;;18.90;63.00;;;;;;5074480;28;20463;-85
2022/08/11 04:02:43;;;;;;;5.07;4.50;;;18.80;63.60;;;;;;5072035;28;20642;-85
2022/08/11 04:06:06;;;;;;;5.67;4.87;;;18.80;64.30;;;;;;5072030;28;20475;-87
2022/08/11 04:09:33;;;;;;;5.20;4.70;;;18.80;64.40;;;;;;5029044;28;20441;-86
2022/08/11 04:12:22;;;;;;;5.93;4.67;;;18.80;64.40;;;;;;5072444;28;20440;-87
2022/08/11 04:18:25;;;;;;;5.60;4.50;;;18.70;65.30;;;;;;5086007;28;20506;-84
2022/08/11 04:21:19;;;;;;;4.87;4.10;;;18.70;64.90;;;;;;5096451;28;20536;-85
2022/08/11 04:24:26;;;;;;;8.20;4.90;;;18.70;64.80;;;;;;5092890;28;20460;-85
2022/08/11 04:27:12;;;;;;;5.40;4.90;;;18.60;64.60;;;;;;5073308;28;20522;-86
2022/08/11 04:29:57;;;;;;;5.63;5.13;;;18.70;64.70;;;;;;5071238;28;20439;-86
2022/08/11 04:32:39;;;;;;;6.17;4.87;;;18.70;64.50;;;;;;5072892;28;20886;-85
2022/08/11 04:35:23;;;;;;;5.23;4.47;;;18.70;64.50;;;;;;5073577;28;20975;-86
2022/08/11 04:38:18;;;;;;;6.20;4.30;;;18.70;64.70;;;;;;5074091;28;20451;-86
2022/08/11 04:41:03;;;;;;;5.67;5.17;;;18.70;64.10;;;;;;5076197;28;20464;-86
2022/08/11 04:43:59;;;;;;;5.17;4.67;;;18.80;64.20;;;;;;5082341;28;20450;-86
2022/08/11 04:46:44;;;;;;;6.50;4.80;;;18.80;63.80;;;;;;5080835;28;20463;-86
2022/08/11 05:01:42;;;;;;;7.13;5.10;;;19.00;64.30;;;;;;5096088;28;20757;-86
2022/08/11 05:07:51;;;;;;;5.53;5.03;;;19.70;62.50;;;;;;5053061;28;20434;-86
2022/08/11 05:10:40;;;;;;;8.63;5.17;;;20.20;60.50;;;;;;5072277;28;20448;-86
2022/08/11 05:35:55;;;;;;;6.47;4.77;;;23.70;52.20;;;;;;5018077;28;20438;-87
2022/08/11 05:57:48;;;;;;;5.93;4.73;;;26.00;47.60;;;;;;5071469;28;20475;-86
2022/08/11 06:00:18;;;;;;;4.40;4.00;;;26.60;46.70;;;;;;5073509;28;20476;-86
2022/08/11 06:02:49;;;;;;;5.57;4.50;;;27.20;45.90;;;;;;5072733;28;20821;-85
2022/08/11 06:05:17;;;;;;;4.10;3.80;;;27.50;45.10;;;;;;5071822;28;20465;-86
2022/08/11 06:07:45;;;;;;;4.43;4.03;;;27.80;44.30;;;;;;5081712;28;20440;-86
2022/08/11 06:10:13;;;;;;;4.23;3.83;;;28.10;43.80;;;;;;5082491;28;20464;-87
2022/08/11 06:12:42;;;;;;;5.20;3.90;;;28.40;43.40;;;;;;5076410;28;20436;-86
2022/08/11 06:15:13;;;;;;;6.50;4.43;;;28.70;42.60;;;;;;5076360;28;20486;-87
2022/08/11 06:17:46;;;;;;;4.67;3.60;;;28.90;42.10;;;;;;5084138;28;20517;-87
2022/08/11 06:20:17;;;;;;;4.00;3.53;;;29.20;41.40;;;;;;5074797;28;20468;-86
2022/08/11 06:22:46;;;;;;;4.50;4.10;;;29.70;41.00;;;;;;5079633;28;20431;-86
2022/08/11 06:25:15;;;;;;;5.50;4.50;;;29.80;40.30;;;;;;5095268;28;20445;-87
2022/08/11 06:27:45;;;;;;;4.00;3.70;;;30.10;39.90;;;;;;5084119;28;20450;-87
2022/08/11 06:30:13;;;;;;;4.00;3.60;;;30.40;39.40;;;;;;5069172;28;20431;-86
2022/08/11 06:32:43;;;;;;;4.53;4.07;;;30.60;39.10;;;;;;5080979;28;20469;-88
2022/08/11 06:35:22;;;;;;;5.23;3.70;;;30.70;38.40;;;;;;5083752;28;20490;-87
2022/08/11 06:38:03;;;;;;;5.50;4.17;;;30.80;38.40;;;;;;5078090;28;20449;-86
2022/08/11 06:40:36;;;;;;;4.20;3.20;;;30.80;38.30;;;;;;5076622;28;20476;-88
2022/08/11 06:43:11;;;;;;;5.67;4.30;;;31.20;37.90;;;;;;5087458;28;20439;-86
2022/08/11 06:45:52;;;;;;;4.90;4.00;;;31.50;37.50;;;;;;5087415;28;20463;-87
2022/08/11 06:48:22;;;;;;;5.37;4.87;;;31.40;37.40;;;;;;5083733;28;20456;-87
2022/08/11 06:53:39;;;;;;;4.20;3.60;;;31.90;36.90;;;;;;5076930;28;20427;-86
2022/08/11 07:01:51;;;;;;;3.73;3.20;;;32.20;35.80;;;;;;5076861;28;20476;-86
2022/08/11 07:04:27;;;;;;;7.60;3.90;;;32.00;36.40;;;;;;5075317;28;20470;-87
2022/08/11 07:16:08;;;;;;;5.47;3.90;;;32.80;35.30;;;;;;5092107;28;20559;-85
2022/08/11 07:30:06;;;;;;;4.80;4.10;;;33.00;34.80;;;;;;5081662;28;21229;-84
2022/08/11 08:18:24;;;;;;;4.03;3.73;;;33.00;34.30;;;;;;5077348;28;20957;-90
2022/08/11 08:20:53;;;;;;;7.60;3.60;;;33.50;34.20;;;;;;5075656;28;20489;-88
2022/08/11 08:23:31;;;;;;;5.40;3.70;;;33.30;33.20;;;;;;5081131;28;20503;-88
2022/08/11 08:26:01;;;;;;;4.03;3.50;;;33.20;33.50;;;;;;5073170;28;20505;-88
2022/08/11 08:28:28;;;;;;;3.20;2.90;;;32.70;34.40;;;;;;5074711;28;20459;-89
2022/08/11 08:30:55;;;;;;;5.10;3.90;;;32.50;34.30;;;;;;5095811;28;20428;-87
2022/08/11 08:33:30;;;;;;;3.90;3.60;;;32.70;34.50;;;;;;5098941;28;20448;-88
2022/08/11 08:36:11;;;;;;;3.73;3.33;;;34.00;33.60;;;;;;5098174;28;20438;-88
2022/08/11 08:38:39;;;;;;;6.53;4.13;;;34.90;31.70;;;;;;5077202;28;20468;-90
2022/08/11 08:41:08;;;;;;;4.07;3.60;;;34.70;31.40;;;;;;5075615;28;20486;-89
2022/08/11 08:43:37;;;;;;;4.30;3.80;;;35.20;31.10;;;;;;5074826;28;20441;-89
2022/08/11 08:46:08;;;;;;;4.30;3.90;;;34.40;31.60;;;;;;5074173;28;20446;-89
2022/08/11 08:48:36;;;;;;;4.93;3.27;;;35.40;31.00;;;;;;5078157;28;20445;-88
2022/08/11 08:53:55;;;;;;;3.70;3.40;;;37.60;28.50;;;;;;5084694;28;20441;-89
2022/08/11 08:56:28;;;;;;;3.20;3.00;;;37.40;28.50;;;;;;5081010;28;20439;-89
2022/08/11 08:58:56;;;;;;;4.03;3.63;;;37.10;28.40;;;;;;5077844;28;20509;-89
2022/08/11 09:01:25;;;;;;;3.13;2.93;;;36.00;29.20;;;;;;5094745;28;20501;-88
2022/08/11 09:03:53;;;;;;;3.57;3.27;;;36.50;28.80;;;;;;5095769;28;20456;-89
2022/08/11 09:06:20;;;;;;;4.17;3.57;;;35.20;29.30;;;;;;5088869;28;20454;-88
2022/08/11 09:08:47;;;;;;;3.87;3.20;;;34.70;30.10;;;;;;5083596;28;20447;-89
2022/08/11 09:14:10;;;;;;;5.00;3.13;;;35.10;29.40;;;;;;5049124;28;20476;-87
2022/08/11 09:16:38;;;;;;;4.40;3.00;;;35.60;29.20;;;;;;5075847;28;20439;-89
2022/08/11 09:19:10;;;;;;;3.00;2.70;;;36.60;28.20;;;;;;5077570;28;20442;-88
2022/08/11 09:21:40;;;;;;;3.20;2.93;;;37.50;27.40;;;;;;5076728;28;20542;-88
2022/08/11 09:26:59;;;;;;;5.90;3.40;;;37.00;27.50;;;;;;5097108;28;20462;-87
2022/08/11 09:29:28;;;;;;;7.90;3.07;;;37.70;27.00;;;;;;5096301;28;20444;-88
2022/08/11 09:31:57;;;;;;;4.97;3.00;;;37.20;26.80;;;;;;5080514;28;20441;-89
2022/08/11 09:34:38;;;;;;;4.43;3.13;;;36.40;27.40;;;;;;5082454;28;20502;-88
2022/08/11 09:45:27;;;;;;;3.37;3.10;;;34.10;29.60;;;;;;5078486;28;20445;-88
2022/08/11 09:47:56;;;;;;;4.50;3.23;;;34.80;29.00;;;;;;5080191;28;20454;-89
2022/08/11 09:50:23;;;;;;;3.17;2.73;;;35.90;28.20;;;;;;5084653;28;20507;-88
2022/08/11 09:52:50;;;;;;;3.10;2.77;;;36.80;27.40;;;;;;5078118;28;20453;-89
2022/08/11 09:55:18;;;;;;;3.37;2.97;;;37.20;27.10;;;;;;5079165;28;20597;-87
2022/08/11 10:00:39;;;;;;;3.40;2.60;;;35.50;27.50;;;;;;5076044;28;20467;-89
2022/08/11 10:03:11;;;;;;;3.97;2.80;;;35.40;27.90;;;;;;5075513;28;20799;-90
2022/08/11 10:08:28;;;;;;;3.50;3.20;;;37.20;26.70;;;;;;5077528;28;20421;-88
2022/08/11 10:10:59;;;;;;;2.60;2.10;;;38.00;25.60;;;;;;5075912;28;20447;-88
2022/08/11 10:13:33;;;;;;;3.17;2.73;;;37.90;25.40;;;;;;5075528;28;20886;-89
2022/08/11 10:16:04;;;;;;;3.33;2.67;;;37.90;25.80;;;;;;5072829;28;20441;-88
2022/08/11 10:18:48;;;;;;;2.73;2.40;;;38.20;25.80;;;;;;5073757;28;20447;-88
2022/08/11 10:21:34;;;;;;;4.20;2.90;;;37.50;25.60;;;;;;5078227;28;20560;-89
2022/08/11 10:26:57;;;;;;;3.60;2.53;;;37.70;25.20;;;;;;5075079;28;20784;-88
2022/08/11 10:35:01;;;;;;;2.77;2.57;;;37.90;24.90;;;;;;5073455;28;20725;-87
2022/08/11 10:37:35;;;;;;;4.60;2.97;;;37.90;25.50;;;;;;5092139;28;20460;-88
2022/08/11 10:40:04;;;;;;;3.30;3.00;;;37.00;25.90;;;;;;5097069;28;20442;-87
2022/08/11 10:48:11;;;;;;;4.97;2.80;;;40.10;24.10;;;;;;5032559;28;20501;-89
2022/08/11 10:58:56;;;;;;;4.63;3.27;;;38.20;24.90;;;;;;5046862;28;20416;-91
2022/08/11 11:01:25;;;;;;;2.60;2.40;;;39.20;24.10;;;;;;5052768;28;20481;-90
2022/08/11 11:03:58;;;;;;;2.73;2.47;;;39.70;23.50;;;;;;5036633;28;20444;-92
2022/08/11 11:06:31;;;;;;;3.40;2.70;;;40.20;22.90;;;;;;5035042;28;20532;-90
2022/08/11 11:09:03;;;;;;;2.50;2.27;;;40.60;22.80;;;;;;5036610;28;20473;-91
2022/08/11 11:20:06;;;;;;;3.27;2.37;;;40.50;22.30;;;;;;5056978;28;20418;-92
2022/08/11 11:22:38;;;;;;;3.20;2.90;;;40.20;23.00;;;;;;5046092;28;20493;-90
2022/08/11 11:25:16;;;;;;;3.17;2.67;;;39.80;22.70;;;;;;5048834;28;20445;-90
2022/08/11 11:27:54;;;;;;;2.60;2.40;;;40.00;22.60;;;;;;5040044;28;20476;-91
2022/08/11 11:30:23;;;;;;;2.80;2.43;;;41.10;21.90;;;;;;5042723;28;20449;-91
2022/08/11 11:33:01;;;;;;;2.80;2.60;;;41.50;21.40;;;;;;5043045;28;20460;-91
2022/08/11 11:35:43;;;;;;;3.33;2.50;;;41.30;21.20;;;;;;5034881;28;20449;-91
2022/08/11 11:38:10;;;;;;;6.60;2.87;;;42.20;21.00;;;;;;5035215;28;20497;-90
2022/08/11 11:40:39;;;;;;;2.30;2.00;;;42.20;20.70;;;;;;5034931;28;20470;-92
2022/08/11 11:43:06;;;;;;;3.10;2.60;;;41.10;21.50;;;;;;5034947;28;20493;-88
2022/08/11 11:45:33;;;;;;;2.53;2.10;;;39.70;22.10;;;;;;5045526;28;20455;-88
2022/08/11 11:48:01;;;;;;;3.90;2.30;;;40.10;22.00;;;;;;5054433;28;20453;-88
2022/08/11 11:50:30;;;;;;;3.77;2.40;;;40.90;21.90;;;;;;5060642;28;20461;-88
2022/08/11 11:53:41;;;;;;;2.47;2.27;;;42.20;21.20;;;;;;5080690;28;20437;-88
2022/08/11 11:56:10;;;;;;;2.97;2.20;;;42.50;20.30;;;;;;5059520;28;20444;-88
2022/08/11 12:01:24;;;;;;;2.87;2.50;;;41.20;20.60;;;;;;5054015;28;20478;-88
2022/08/11 12:03:53;;;;;;;3.40;2.60;;;39.40;22.10;;;;;;5054144;28;20547;-88
2022/08/11 12:06:23;;;;;;;3.63;2.23;;;39.40;22.10;;;;;;5059812;28;20460;-89
2022/08/11 12:08:53;;;;;;;3.20;2.77;;;39.50;22.10;;;;;;5073856;28;20923;-87
2022/08/11 12:14:09;;;;;;;3.60;2.40;;;40.50;21.60;;;;;;5060085;28;20430;-88
2022/08/11 12:16:38;;;;;;;2.90;2.67;;;40.90;21.60;;;;;;5057344;28;20444;-88
2022/08/11 12:19:07;;;;;;;2.80;2.60;;;40.20;21.50;;;;;;5056141;28;20456;-88
2022/08/11 12:21:36;;;;;;;2.47;2.27;;;38.80;22.40;;;;;;5053586;28;20496;-88
2022/08/11 12:29:35;;;;;;;2.27;2.07;;;39.30;22.30;;;;;;5056599;28;20553;-88
2022/08/11 12:32:07;;;;;;;3.10;2.80;;;40.90;21.00;;;;;;5045660;28;20458;-89
2022/08/11 12:34:34;;;;;;;3.30;2.70;;;41.70;20.90;;;;;;5041758;28;22212;-89
2022/08/11 12:37:04;;;;;;;2.67;2.30;;;42.40;20.30;;;;;;5044205;28;20452;-88
2022/08/11 12:45:30;;;;;;;3.40;2.40;;;39.90;21.50;;;;;;5039870;28;20493;-88
2022/08/11 12:53:46;;;;;;;3.03;2.67;;;39.90;21.00;;;;;;5040693;28;20414;-87
2022/08/11 13:07:17;;;;;;;5.00;2.70;;;40.60;20.90;;;;;;5042659;28;20604;-87
2022/08/11 13:09:44;;;;;;;2.53;2.33;;;40.60;20.90;;;;;;5040058;28;20857;-87
2022/08/11 13:14:59;;;;;;;2.73;2.50;;;42.00;20.10;;;;;;5054005;28;20445;-87
2022/08/11 13:17:28;;;;;;;6.50;2.40;;;42.60;19.40;;;;;;5060712;28;20446;-88
2022/08/11 13:19:56;;;;;;;3.20;2.60;;;42.60;19.30;;;;;;5046420;28;20449;-88
2022/08/11 13:22:24;;;;;;;2.70;2.43;;;43.60;19.20;;;;;;5057916;28;20480;-88
2022/08/11 13:24:54;;;;;;;2.63;2.43;;;42.90;18.90;;;;;;5069784;28;20436;-88
2022/08/11 13:27:22;;;;;;;2.77;2.03;;;42.20;20.10;;;;;;5067746;28;20425;-88
2022/08/11 13:29:52;;;;;;;3.10;2.27;;;41.80;19.60;;;;;;5060087;28;20453;-87
2022/08/11 13:32:25;;;;;;;3.57;2.37;;;40.40;20.30;;;;;;5051969;28;20535;-88
2022/08/11 13:34:52;;;;;;;3.87;2.43;;;40.40;20.60;;;;;;5068373;28;20437;-90
2022/08/11 13:37:21;;;;;;;2.10;1.90;;;40.30;20.40;;;;;;5050483;28;20437;-90
2022/08/11 13:39:48;;;;;;;2.33;2.07;;;38.60;21.60;;;;;;5059469;28;20425;-92
2022/08/11 13:42:18;;;;;;;2.33;2.13;;;38.40;21.90;;;;;;5054833;28;20476;-92
2022/08/11 13:44:46;;;;;;;2.53;2.33;;;38.60;21.80;;;;;;5064174;28;20461;-91
2022/08/11 13:47:14;;;;;;;2.80;2.10;;;38.30;22.10;;;;;;5068954;28;20448;-90
2022/08/11 13:49:44;;;;;;;2.47;2.27;;;38.70;21.70;;;;;;5067423;28;20427;-89
2022/08/11 13:52:14;;;;;;;2.60;2.40;;;38.70;21.70;;;;;;5066344;28;20446;-90
2022/08/11 13:54:42;;;;;;;2.97;2.50;;;39.10;21.20;;;;;;5058699;28;20753;-90
2022/08/11 13:57:13;;;;;;;2.40;2.20;;;39.80;20.80;;;;;;5040858;28;20816;-90
2022/08/11 13:59:41;;;;;;;2.70;2.50;;;39.80;20.70;;;;;;5041221;28;20536;-91
2022/08/11 14:02:14;;;;;;;3.30;2.70;;;38.90;21.20;;;;;;5045390;28;20474;-91
2022/08/11 14:04:48;;;;;;;2.87;1.90;;;38.20;21.90;;;;;;5044835;28;20484;-91
2022/08/11 14:07:21;;;;;;;2.30;2.10;;;38.20;22.00;;;;;;5045375;28;20445;-92
2022/08/11 14:09:48;;;;;;;2.80;2.30;;;38.10;22.20;;;;;;5050482;28;20828;-91
2022/08/11 14:15:23;;;;;;;5.20;2.50;;;38.40;21.60;;;;;;5046398;28;20420;-92
2022/08/11 14:17:54;;;;;;;2.50;2.20;;;38.60;21.70;;;;;;5040362;28;20442;-91
2022/08/11 14:22:05;;;;;;;2.73;2.20;;;39.30;21.20;;;;;;5047420;28;21091;-91
2022/08/11 14:23:13;;;;;;;3.00;2.27;;;39.90;20.70;;;;;;5043413;28;20464;-91
2022/08/11 14:26:22;;;;;;;3.90;2.77;;;40.20;20.40;;;;;;5038646;28;20441;-92
2022/08/11 14:28:31;;;;;;;6.10;2.60;;;39.80;20.20;;;;;;5046959;28;20466;-91
2022/08/11 14:30:58;;;;;;;2.17;1.97;;;38.10;21.20;;;;;;5042563;28;20506;-91
2022/08/11 14:33:24;;;;;;;2.73;2.10;;;37.20;22.10;;;;;;5037566;28;20821;-90
2022/08/11 14:35:53;;;;;;;2.00;1.90;;;37.00;22.30;;;;;;5046137;28;20448;-91
2022/08/11 14:38:21;;;;;;;3.90;2.13;;;37.50;22.60;;;;;;5055985;28;20447;-91
2022/08/11 14:49:13;;;;;;;3.67;2.70;;;36.00;22.90;;;;;;5052500;28;20419;-92
2022/08/11 14:51:47;;;;;;;5.20;1.93;;;35.40;24.00;;;;;;5057961;28;20459;-92
2022/08/11 14:57:00;;;;;;;3.07;2.57;;;36.10;23.30;;;;;;5047340;28;20423;-92
2022/08/11 14:59:27;;;;;;;3.13;2.17;;;36.30;23.00;;;;;;5049865;28;20875;-93
2022/08/11 15:04:43;;;;;;;3.23;2.40;;;35.80;23.10;;;;;;5046917;28;20414;-92
2022/08/11 15:07:44;;;;;;;3.00;2.27;;;34.50;23.60;;;;;;5046114;28;20452;-93
2022/08/11 15:10:14;;;;;;;2.70;2.10;;;33.20;25.00;;;;;;5049692;28;20445;-93
2022/08/11 15:12:42;;;;;;;2.80;2.50;;;32.80;25.70;;;;;;5056097;28;20454;-88
2022/08/11 15:17:58;;;;;;;2.53;2.30;;;32.20;26.20;;;;;;5062320;28;20459;-91
2022/08/11 15:26:00;;;;;;;4.23;2.67;;;31.60;26.80;;;;;;5072272;28;20480;-90
2022/08/11 15:45:46;;;;;;;3.33;2.50;;;31.00;27.20;;;;;;5043292;28;20423;-91
2022/08/11 15:48:07;;;;;;;2.80;2.30;;;30.80;27.60;;;;;;5043032;28;21048;-92
2022/08/11 15:50:38;;;;;;;2.90;2.50;;;30.90;27.80;;;;;;5051116;28;20471;-91
2022/08/11 15:53:09;;;;;;;3.40;2.90;;;31.00;27.60;;;;;;5049546;28;20441;-92
2022/08/11 15:55:38;;;;;;;2.80;2.50;;;31.00;27.70;;;;;;5055878;28;20886;-91
2022/08/11 16:04:15;;;;;;;3.70;2.70;;;31.00;27.80;;;;;;5057412;28;20511;-90
2022/08/11 16:06:50;;;;;;;3.57;2.60;;;30.70;28.00;;;;;;5067439;28;20441;-92
2022/08/11 16:09:22;;;;;;;2.60;2.40;;;30.60;28.60;;;;;;5119413;22;20499;-94
2022/08/11 16:11:53;;;;;;;3.00;2.63;;;30.40;28.40;;;;;;5076546;28;20466;-94
2022/08/11 16:17:10;;;;;;;2.60;2.40;;;30.30;28.40;;;;;;5077760;28;20416;-93
2022/08/11 16:19:40;;;;;;;3.20;2.77;;;30.30;28.80;;;;;;5077961;28;20435;-93
2022/08/11 16:22:10;;;;;;;2.90;2.70;;;30.30;28.80;;;;;;5077099;28;20479;-92
2022/08/11 16:24:42;;;;;;;2.63;2.40;;;30.20;28.90;;;;;;5083166;28;20449;-92
2022/08/11 16:30:37;;;;;;;3.20;2.50;;;30.20;28.50;;;;;;5080407;28;20429;-94
2022/08/11 16:33:05;;;;;;;3.10;2.80;;;30.10;28.70;;;;;;5090597;28;20513;-95
2022/08/11 16:38:35;;;;;;;4.40;2.57;;;30.00;28.60;;;;;;5080450;28;20455;-94
2022/08/11 16:41:06;;;;;;;2.47;2.13;;;30.00;28.40;;;;;;5080993;28;20589;-94
2022/08/11 16:51:47;;;;;;;3.13;2.80;;;29.60;29.00;;;;;;5100804;22;20487;-93
2022/08/11 16:54:15;;;;;;;2.97;2.67;;;29.40;28.90;;;;;;5039526;28;20533;-94
2022/08/11 16:56:54;;;;;;;3.30;3.10;;;29.40;29.40;;;;;;5038219;28;20465;-93
2022/08/11 16:59:28;;;;;;;3.23;2.63;;;29.40;29.30;;;;;;5035989;28;20528;-94
2022/08/11 17:02:05;;;;;;;3.40;2.37;;;29.50;29.20;;;;;;5040957;28;20473;-93
2022/08/11 17:13:21;;;;;;;4.50;2.70;;;29.30;29.60;;;;;;5058421;28;20445;-89
2022/08/11 17:16:11;;;;;;;3.87;3.20;;;29.30;29.70;;;;;;5044766;28;20451;-91
2022/08/11 17:18:48;;;;;;;3.47;3.03;;;29.30;29.60;;;;;;5048699;28;20522;-93
2022/08/11 17:21:21;;;;;;;3.40;3.10;;;29.30;29.80;;;;;;5057688;28;20449;-90
2022/08/11 17:23:51;;;;;;;3.80;3.03;;;29.20;29.80;;;;;;5057337;28;20476;-92
2022/08/11 17:26:22;;;;;;;2.93;2.50;;;29.10;30.00;;;;;;5058333;28;20445;-90
2022/08/11 17:28:55;;;;;;;3.40;2.43;;;29.00;29.90;;;;;;5058976;28;20446;-92
2022/08/11 17:37:04;;;;;;;3.40;2.47;;;28.80;30.30;;;;;;5063490;28;20427;-89
2022/08/11 17:39:38;;;;;;;2.60;2.40;;;28.80;30.30;;;;;;5051540;28;20495;-90
2022/08/11 17:50:29;;;;;;;3.20;2.90;;;28.70;30.40;;;;;;5046330;28;20426;-89
2022/08/11 18:01:17;;;;;;;5.40;3.10;;;28.40;31.30;;;;;;5036826;28;20458;-91
2022/08/11 18:03:44;;;;;;;3.60;2.63;;;28.30;31.40;;;;;;5036315;28;20474;-91
2022/08/11 18:06:14;;;;;;;4.33;3.20;;;28.30;31.40;;;;;;5042543;28;20445;-91
